Time;durP1;ratioP1;P1;durP2;ratioP2;P2;SDS_P1;SDS_P2;PMS_P1;PMS_P2;Temp;Humidity;BMP_temperature;BMP_pressure;BME280_temperature;BME280_humidity;BME280_pressure;Samples;Min_cycle;Max_cycle;Signal;HPM_P1;HPM_P2
2023/02/12 00:04:07;;;;;;;6.30;4.13;;;;;;;;;;10348387;28;20046;-85
2023/02/12 00:09:10;;;;;;;7.78;5.05;;;;;;;;;;10348927;28;20054;-87
2023/02/12 00:14:14;;;;;;;6.30;4.07;;;;;;;;;;10344296;28;20042;-84
2023/02/12 00:19:19;;;;;;;6.45;3.97;;;;;;;;;;10349644;28;20050;-85
2023/02/12 00:24:22;;;;;;;7.68;4.25;;;;;;;;;;10366092;28;20125;-84
2023/02/12 00:29:26;;;;;;;6.97;4.55;;;;;;;;;;10348552;28;20459;-84
2023/02/12 00:34:31;;;;;;;6.93;4.60;;;;;;;;;;10354366;28;20042;-86
2023/02/12 00:39:36;;;;;;;7.80;4.53;;;;;;;;;;10347593;28;20060;-83
2023/02/12 00:44:40;;;;;;;7.43;4.22;;;;;;;;;;10374077;28;20069;-84
2023/02/12 00:49:45;;;;;;;7.78;4.20;;;;;;;;;;10357216;28;20396;-85
2023/02/12 00:54:48;;;;;;;5.72;4.05;;;;;;;;;;10357336;28;20120;-84
2023/02/12 00:59:52;;;;;;;5.15;3.78;;;;;;;;;;10358247;28;20505;-83
2023/02/12 01:04:57;;;;;;;6.10;3.75;;;;;;;;;;10357807;28;20548;-84
2023/02/12 01:10:00;;;;;;;7.00;3.97;;;;;;;;;;10360468;28;20410;-85
2023/02/12 01:15:05;;;;;;;6.28;4.10;;;;;;;;;;10379012;28;20306;-89
2023/02/12 01:20:16;;;;;;;4.97;3.53;;;;;;;;;;10368777;28;20048;-86
2023/02/12 01:25:31;;;;;;;5.15;3.65;;;;;;;;;;10362779;28;20037;-84
2023/02/12 01:30:34;;;;;;;5.30;3.50;;;;;;;;;;10352853;28;20072;-84
2023/02/12 01:35:39;;;;;;;5.57;3.78;;;;;;;;;;10360497;28;20045;-84
2023/02/12 01:40:42;;;;;;;6.93;4.32;;;;;;;;;;10359449;28;20053;-86
2023/02/12 01:45:54;;;;;;;6.15;3.83;;;;;;;;;;10358490;28;20050;-86
2023/02/12 01:51:02;;;;;;;5.47;4.03;;;;;;;;;;10358505;28;20084;-89
2023/02/12 01:56:08;;;;;;;5.93;4.22;;;;;;;;;;10366669;28;20049;-86
2023/02/12 02:01:15;;;;;;;5.07;3.63;;;;;;;;;;10358151;28;20045;-86
2023/02/12 02:06:22;;;;;;;6.03;3.58;;;;;;;;;;10351504;28;20096;-86
2023/02/12 02:16:52;;;;;;;5.80;4.10;;;;;;;;;;10357225;28;20046;-85
2023/02/12 02:22:20;;;;;;;5.50;3.50;;;;;;;;;;10357810;28;20509;-87
2023/02/12 02:27:32;;;;;;;6.32;3.95;;;;;;;;;;10352022;28;20121;-84
2023/02/12 02:32:41;;;;;;;6.32;3.70;;;;;;;;;;10374155;28;20048;-86
2023/02/12 02:37:50;;;;;;;5.65;3.90;;;;;;;;;;10373194;28;20058;-86
2023/02/12 02:42:57;;;;;;;6.93;3.88;;;;;;;;;;10356137;28;20141;-86
2023/02/12 02:48:09;;;;;;;5.65;4.00;;;;;;;;;;10356937;28;20046;-87
2023/02/12 02:53:16;;;;;;;7.07;4.45;;;;;;;;;;10373661;28;20532;-85
2023/02/12 02:58:23;;;;;;;5.78;4.38;;;;;;;;;;10356363;28;20128;-87
2023/02/12 03:03:32;;;;;;;5.55;3.85;;;;;;;;;;10350002;28;20073;-87
2023/02/12 03:08:40;;;;;;;5.85;3.95;;;;;;;;;;10355860;28;20057;-87
2023/02/12 03:13:47;;;;;;;7.75;4.18;;;;;;;;;;10355886;28;20046;-86
2023/02/12 03:18:56;;;;;;;6.38;4.18;;;;;;;;;;10354835;28;20038;-84
2023/02/12 03:24:05;;;;;;;6.57;4.50;;;;;;;;;;10372773;28;20578;-85
2023/02/12 03:29:08;;;;;;;6.07;3.85;;;;;;;;;;10355574;28;20660;-84
2023/02/12 03:34:21;;;;;;;7.07;4.15;;;;;;;;;;10353095;28;20046;-87
2023/02/12 03:39:30;;;;;;;4.88;3.63;;;;;;;;;;10354172;28;20045;-84
2023/02/12 03:44:47;;;;;;;5.93;4.00;;;;;;;;;;10353503;28;20060;-87
2023/02/12 03:50:01;;;;;;;7.50;4.40;;;;;;;;;;10354184;28;20111;-87
2023/02/12 03:55:05;;;;;;;7.45;4.47;;;;;;;;;;10354304;28;20078;-89
2023/02/12 04:00:13;;;;;;;7.40;4.45;;;;;;;;;;10354741;28;20054;-85
2023/02/12 04:05:33;;;;;;;5.57;3.58;;;;;;;;;;10365592;28;20046;-84
2023/02/12 04:10:44;;;;;;;6.43;3.97;;;;;;;;;;10361178;28;20069;-84
2023/02/12 04:15:59;;;;;;;8.40;4.32;;;;;;;;;;10380193;28;20076;-84
2023/02/12 04:21:12;;;;;;;6.53;4.07;;;;;;;;;;10362093;28;20046;-84
2023/02/12 04:26:24;;;;;;;6.20;4.53;;;;;;;;;;10362594;28;20136;-88
2023/02/12 04:31:33;;;;;;;6.95;4.45;;;;;;;;;;10361349;28;20062;-87
2023/02/12 04:36:45;;;;;;;6.53;4.53;;;;;;;;;;10361366;28;20053;-86
2023/02/12 04:41:48;;;;;;;6.97;4.47;;;;;;;;;;10361077;28;20045;-88
2023/02/12 04:46:52;;;;;;;7.65;4.60;;;;;;;;;;10378611;28;20060;-83
2023/02/12 04:51:57;;;;;;;6.47;4.28;;;;;;;;;;10361726;28;20050;-85
2023/02/12 04:57:01;;;;;;;8.05;4.40;;;;;;;;;;10361248;28;20737;-84
2023/02/12 05:02:05;;;;;;;34.90;16.75;;;;;;;;;;10360804;28;20064;-86
2023/02/12 05:07:11;;;;;;;63.47;27.23;;;;;;;;;;10360465;28;20052;-84
2023/02/12 05:12:14;;;;;;;53.47;24.42;;;;;;;;;;10376834;28;20061;-87
2023/02/12 05:17:18;;;;;;;50.60;22.48;;;;;;;;;;10377580;28;20084;-84
2023/02/12 05:22:23;;;;;;;33.65;16.23;;;;;;;;;;10357588;28;20066;-85
2023/02/12 05:27:26;;;;;;;20.08;10.55;;;;;;;;;;10354930;28;20056;-82
2023/02/12 05:32:29;;;;;;;14.60;7.80;;;;;;;;;;10361869;28;20046;-82
2023/02/12 05:37:36;;;;;;;10.77;6.15;;;;;;;;;;10346183;28;20049;-82
2023/02/12 05:42:39;;;;;;;10.02;5.68;;;;;;;;;;10346609;28;20077;-83
2023/02/12 05:47:42;;;;;;;8.00;5.20;;;;;;;;;;10344456;28;20236;-83
2023/02/12 05:52:47;;;;;;;8.35;5.50;;;;;;;;;;10344564;28;20050;-83
2023/02/12 05:57:51;;;;;;;8.32;4.82;;;;;;;;;;10362646;28;20429;-81
2023/02/12 06:02:54;;;;;;;9.50;5.35;;;;;;;;;;10363415;28;20481;-82
2023/02/12 06:07:59;;;;;;;9.77;5.50;;;;;;;;;;10365337;28;20112;-82
2023/02/12 06:13:02;;;;;;;7.38;5.47;;;;;;;;;;10349090;28;20255;-83
2023/02/12 06:18:05;;;;;;;9.35;5.40;;;;;;;;;;10341239;28;20049;-83
2023/02/12 06:23:10;;;;;;;8.90;4.97;;;;;;;;;;10365796;28;20646;-83
2023/02/12 06:28:13;;;;;;;7.18;4.72;;;;;;;;;;10347986;28;20078;-84
2023/02/12 06:33:17;;;;;;;8.18;5.93;;;;;;;;;;10365082;28;20113;-83
2023/02/12 06:38:21;;;;;;;8.15;5.40;;;;;;;;;;10346941;28;20142;-82
2023/02/12 06:43:25;;;;;;;8.90;5.25;;;;;;;;;;10363686;28;20069;-83
2023/02/12 06:48:29;;;;;;;8.90;5.75;;;;;;;;;;10348711;28;20068;-83
2023/02/12 06:53:34;;;;;;;8.23;5.70;;;;;;;;;;10347990;28;20049;-81
2023/02/12 06:58:39;;;;;;;8.60;5.15;;;;;;;;;;10346409;28;20046;-83
2023/02/12 07:03:44;;;;;;;7.95;5.00;;;;;;;;;;10346761;28;20057;-83
2023/02/12 07:08:51;;;;;;;10.63;5.97;;;;;;;;;;10361697;28;20037;-83
2023/02/12 07:13:56;;;;;;;10.65;6.13;;;;;;;;;;10344764;28;20387;-83
2023/02/12 07:18:59;;;;;;;9.95;6.05;;;;;;;;;;10360863;28;20050;-82
2023/02/12 07:24:04;;;;;;;8.32;5.68;;;;;;;;;;10360048;28;20121;-82
2023/02/12 07:29:08;;;;;;;10.10;5.80;;;;;;;;;;10343492;28;20053;-83
2023/02/12 07:34:11;;;;;;;8.80;4.85;;;;;;;;;;10337724;28;20073;-81
2023/02/12 07:39:16;;;;;;;10.15;6.07;;;;;;;;;;10356218;28;20057;-84
2023/02/12 07:44:20;;;;;;;10.65;6.22;;;;;;;;;;10360982;28;20058;-82
2023/02/12 07:49:24;;;;;;;8.90;5.80;;;;;;;;;;10353352;28;20140;-83
2023/02/12 07:54:29;;;;;;;11.25;6.13;;;;;;;;;;10361286;28;20048;-83
2023/02/12 07:59:32;;;;;;;9.40;5.78;;;;;;;;;;10343247;28;20046;-83
2023/02/12 08:04:35;;;;;;;10.00;6.38;;;;;;;;;;10342649;28;20489;-82
2023/02/12 08:09:40;;;;;;;9.48;6.28;;;;;;;;;;10342305;28;20148;-84
2023/02/12 08:14:44;;;;;;;9.38;6.45;;;;;;;;;;10357830;28;20058;-84
2023/02/12 08:19:47;;;;;;;10.32;6.15;;;;;;;;;;10339521;28;20214;-81
2023/02/12 08:24:54;;;;;;;9.52;6.32;;;;;;;;;;10356880;28;20057;-82
2023/02/12 08:30:00;;;;;;;12.65;6.93;;;;;;;;;;10359398;28;20522;-83
2023/02/12 08:35:06;;;;;;;12.73;6.45;;;;;;;;;;10345156;28;20141;-86
2023/02/12 08:40:14;;;;;;;;;;;;;;;;;;10345308;28;20057;-85
2023/02/12 08:45:18;;;;;;;19.05;9.25;;;;;;;;;;10355486;28;19921;-84
2023/02/12 08:50:21;;;;;;;19.92;9.45;;;;;;;;;;10346013;28;20046;-83
2023/02/12 08:55:27;;;;;;;18.35;9.20;;;;;;;;;;10350731;28;20056;-88
2023/02/12 09:00:30;;;;;;;21.15;9.77;;;;;;;;;;10363040;28;20045;-87
2023/02/12 09:05:33;;;;;;;21.10;9.60;;;;;;;;;;10357047;28;20580;-82
2023/02/12 09:10:41;;;;;;;22.98;10.05;;;;;;;;;;10352536;28;20137;-81
2023/02/12 09:15:46;;;;;;;34.97;16.02;;;;;;;;;;10326207;28;20068;-83
2023/02/12 09:20:49;;;;;;;37.95;18.13;;;;;;;;;;10338082;28;20050;-82
2023/02/12 09:25:54;;;;;;;28.77;13.55;;;;;;;;;;10432176;23;20047;-85
2023/02/12 09:31:08;;;;;;;22.05;10.98;;;;;;;;;;10269076;28;20066;-84
2023/02/12 09:36:14;;;;;;;35.42;15.35;;;;;;;;;;10274885;28;20081;-86
2023/02/12 09:41:57;;;;;;;27.10;12.80;;;;;;;;;;10239117;28;20058;-84
2023/02/12 09:47:03;;;;;;;22.45;11.40;;;;;;;;;;10268650;28;20460;-86
2023/02/12 09:52:13;;;;;;;25.00;11.80;;;;;;;;;;10267350;28;20057;-85
2023/02/12 09:57:24;;;;;;;30.23;14.60;;;;;;;;;;10256920;28;20074;-84
2023/02/12 10:02:29;;;;;;;23.05;11.77;;;;;;;;;;10254595;28;20075;-88
2023/02/12 10:07:57;;;;;;;22.10;11.07;;;;;;;;;;10257463;28;20047;-82
2023/02/12 10:13:06;;;;;;;20.30;9.98;;;;;;;;;;10246150;28;20540;-83
2023/02/12 10:18:35;;;;;;;24.85;12.43;;;;;;;;;;10256275;28;20058;-83
2023/02/12 10:23:56;;;;;;;22.85;11.00;;;;;;;;;;10265982;28;20039;-84
2023/02/12 10:29:10;;;;;;;18.30;9.90;;;;;;;;;;10250264;28;20982;-84
2023/02/12 10:34:18;;;;;;;21.48;10.48;;;;;;;;;;10257017;28;20046;-81
2023/02/12 10:39:24;;;;;;;21.25;10.05;;;;;;;;;;10245043;28;20042;-84
2023/02/12 10:44:31;;;;;;;17.17;9.18;;;;;;;;;;10251985;28;20066;-86
2023/02/12 10:49:35;;;;;;;22.85;12.18;;;;;;;;;;10244354;28;20133;-83
2023/02/12 10:54:42;;;;;;;20.33;10.63;;;;;;;;;;10262964;28;20114;-83
2023/02/12 10:59:48;;;;;;;21.98;11.52;;;;;;;;;;10267495;28;20279;-84
2023/02/12 11:04:54;;;;;;;24.17;11.98;;;;;;;;;;10264791;28;20051;-84
2023/02/12 11:09:57;;;;;;;25.13;13.18;;;;;;;;;;10249170;28;20039;-82
2023/02/12 11:15:13;;;;;;;31.92;16.27;;;;;;;;;;10262933;28;20424;-84
2023/02/12 11:20:24;;;;;;;27.65;14.32;;;;;;;;;;10254659;28;20046;-86
2023/02/12 11:25:30;;;;;;;25.10;12.55;;;;;;;;;;10262263;28;20049;-83
2023/02/12 11:30:37;;;;;;;25.67;13.18;;;;;;;;;;10252063;28;20525;-83
2023/02/12 11:35:50;;;;;;;22.90;12.40;;;;;;;;;;10258828;28;20133;-83
2023/02/12 11:41:21;;;;;;;21.40;10.20;;;;;;;;;;10256299;28;20131;-84
2023/02/12 11:46:28;;;;;;;27.75;14.88;;;;;;;;;;10236392;28;20047;-82
2023/02/12 11:51:32;;;;;;;32.70;15.85;;;;;;;;;;10252217;28;20067;-82
2023/02/12 11:56:45;;;;;;;26.80;12.52;;;;;;;;;;10256672;28;20077;-81
2023/02/12 12:01:53;;;;;;;20.58;10.80;;;;;;;;;;10248270;28;20234;-80
2023/02/12 12:07:03;;;;;;;18.88;9.65;;;;;;;;;;10256093;28;20039;-82
2023/02/12 12:12:13;;;;;;;17.98;9.55;;;;;;;;;;10258777;28;20063;-82
2023/02/12 12:22:46;;;;;;;16.50;9.32;;;;;;;;;;10259066;28;20078;-83
2023/02/12 12:28:08;;;;;;;15.60;8.07;;;;;;;;;;10260082;28;20074;-84
2023/02/12 12:33:19;;;;;;;14.70;7.85;;;;;;;;;;10267256;28;20061;-82
2023/02/12 12:38:32;;;;;;;12.75;7.50;;;;;;;;;;10263724;28;20137;-82
2023/02/12 12:43:52;;;;;;;14.37;7.07;;;;;;;;;;10268589;28;20130;-84
2023/02/12 12:49:23;;;;;;;14.10;7.72;;;;;;;;;;10267294;28;20085;-83
2023/02/12 12:54:40;;;;;;;18.92;10.02;;;;;;;;;;10239022;28;20437;-82
2023/02/12 13:00:11;;;;;;;16.42;9.27;;;;;;;;;;10267582;28;20043;-84
2023/02/12 13:05:51;;;;;;;21.70;11.20;;;;;;;;;;10244821;28;20057;-84
2023/02/12 13:11:04;;;;;;;14.45;8.52;;;;;;;;;;10279104;28;20050;-84
2023/02/12 13:16:15;;;;;;;15.02;7.55;;;;;;;;;;10270289;28;20429;-84
2023/02/12 13:21:34;;;;;;;9.98;6.07;;;;;;;;;;10259706;28;20050;-85
2023/02/12 13:26:47;;;;;;;8.13;5.35;;;;;;;;;;10267463;28;20046;-82
2023/02/12 13:31:54;;;;;;;13.45;7.45;;;;;;;;;;10264529;28;20129;-83
2023/02/12 13:37:01;;;;;;;13.32;7.07;;;;;;;;;;10263358;28;20049;-81
2023/02/12 13:42:24;;;;;;;10.15;5.75;;;;;;;;;;10261505;28;20046;-82
2023/02/12 13:47:34;;;;;;;9.93;5.13;;;;;;;;;;10256310;28;20157;-82
2023/02/12 13:52:45;;;;;;;7.93;4.80;;;;;;;;;;10261482;28;20074;-81
2023/02/12 13:58:31;;;;;;;12.10;6.78;;;;;;;;;;10261324;28;20066;-84
2023/02/12 14:03:35;;;;;;;;;;;;;;;;;;10270751;28;20043;-85
2023/02/12 14:08:43;;;;;;;2.80;2.08;;;;;;;;;;10268297;28;20581;-83
2023/02/12 14:13:54;;;;;;;2.65;1.85;;;;;;;;;;10267791;28;20537;-86
2023/02/12 14:19:31;;;;;;;1.50;1.33;;;;;;;;;;10267916;28;20362;-85
2023/02/12 14:24:51;;;;;;;2.03;1.63;;;;;;;;;;10262875;28;20050;-86
2023/02/12 14:30:19;;;;;;;2.83;2.08;;;;;;;;;;10266463;28;20038;-82
2023/02/12 14:35:33;;;;;;;2.40;1.67;;;;;;;;;;10264213;28;20055;-82
2023/02/12 14:40:42;;;;;;;3.15;2.28;;;;;;;;;;10262481;28;20050;-85
2023/02/12 14:45:48;;;;;;;2.10;1.85;;;;;;;;;;10266093;28;20199;-84
2023/02/12 14:50:52;;;;;;;5.45;2.63;;;;;;;;;;10273763;28;20342;-83
2023/02/12 14:55:56;;;;;;;4.45;2.28;;;;;;;;;;10263963;28;20133;-84
2023/02/12 15:01:03;;;;;;;3.05;1.92;;;;;;;;;;10258333;28;20053;-84
2023/02/12 15:06:14;;;;;;;3.50;2.20;;;;;;;;;;10263139;28;20054;-83
2023/02/12 15:11:35;;;;;;;5.70;3.13;;;;;;;;;;10265879;28;20131;-84
2023/02/12 15:16:49;;;;;;;4.43;2.70;;;;;;;;;;10263422;28;20050;-88
2023/02/12 15:21:54;;;;;;;4.88;3.15;;;;;;;;;;10260959;28;20117;-83
2023/02/12 15:26:59;;;;;;;6.10;3.67;;;;;;;;;;10258530;28;20517;-82
2023/02/12 15:32:08;;;;;;;5.37;3.40;;;;;;;;;;10259824;28;20050;-83
2023/02/12 15:37:21;;;;;;;10.15;5.63;;;;;;;;;;10259593;28;20130;-82
2023/02/12 15:42:31;;;;;;;9.50;5.78;;;;;;;;;;10244741;28;20050;-83
2023/02/12 15:47:36;;;;;;;9.13;5.20;;;;;;;;;;10262355;28;20043;-82
2023/02/12 15:52:43;;;;;;;10.40;5.63;;;;;;;;;;10259290;28;20069;-82
2023/02/12 15:57:50;;;;;;;9.02;4.97;;;;;;;;;;10245398;28;20061;-83
2023/02/12 16:02:55;;;;;;;7.90;4.63;;;;;;;;;;10254551;28;20065;-84
2023/02/12 16:08:00;;;;;;;8.73;5.30;;;;;;;;;;10257334;28;20120;-83
2023/02/12 16:13:05;;;;;;;10.57;5.93;;;;;;;;;;10254447;28;20043;-85
2023/02/12 16:18:23;;;;;;;7.82;4.70;;;;;;;;;;10253747;28;20464;-85
2023/02/12 16:23:27;;;;;;;8.13;5.18;;;;;;;;;;10258362;28;20062;-87
2023/02/12 16:28:31;;;;;;;7.43;4.38;;;;;;;;;;10260513;28;20041;-85
2023/02/12 16:33:44;;;;;;;7.30;4.70;;;;;;;;;;10259104;28;20043;-85
2023/02/12 16:38:49;;;;;;;7.25;4.28;;;;;;;;;;10274609;28;20054;-87
2023/02/12 16:44:30;;;;;;;6.38;4.20;;;;;;;;;;10259746;28;20053;-85
2023/02/12 16:49:35;;;;;;;6.22;3.65;;;;;;;;;;10257638;28;20035;-84
2023/02/12 16:54:41;;;;;;;6.18;4.00;;;;;;;;;;10259284;28;20494;-83
2023/02/12 16:59:44;;;;;;;5.67;3.60;;;;;;;;;;10265766;28;20506;-85
2023/02/12 17:04:49;;;;;;;6.13;3.78;;;;;;;;;;10260994;28;20081;-86
2023/02/12 17:09:53;;;;;;;6.17;4.03;;;;;;;;;;10267546;28;20046;-86
2023/02/12 17:14:57;;;;;;;6.60;4.47;;;;;;;;;;10260529;28;20249;-84
2023/02/12 17:20:03;;;;;;;6.55;3.88;;;;;;;;;;10270544;28;20039;-88
2023/02/12 17:25:07;;;;;;;6.40;4.22;;;;;;;;;;10275886;28;20050;-85
2023/02/12 17:30:15;;;;;;;7.43;4.63;;;;;;;;;;10269039;28;20051;-83
2023/02/12 17:35:20;;;;;;;6.60;4.63;;;;;;;;;;10260632;28;20533;-87
2023/02/12 17:40:23;;;;;;;7.47;4.82;;;;;;;;;;10268657;28;20668;-83
2023/02/12 17:45:29;;;;;;;7.32;5.07;;;;;;;;;;10256628;28;20062;-83
2023/02/12 17:50:34;;;;;;;9.35;5.72;;;;;;;;;;10268777;28;20046;-84
2023/02/12 17:55:39;;;;;;;6.45;4.45;;;;;;;;;;10253917;28;20846;-84
2023/02/12 18:00:42;;;;;;;8.30;4.45;;;;;;;;;;10260991;28;20081;-83
2023/02/12 18:05:49;;;;;;;6.07;4.17;;;;;;;;;;10255148;28;20051;-83
2023/02/12 18:10:53;;;;;;;6.40;4.45;;;;;;;;;;10262389;28;20046;-83
2023/02/12 18:15:57;;;;;;;6.00;4.25;;;;;;;;;;10252863;28;20533;-83
2023/02/12 18:21:05;;;;;;;5.60;3.33;;;;;;;;;;10264977;28;20130;-84
2023/02/12 18:26:11;;;;;;;4.10;2.90;;;;;;;;;;10257642;28;20054;-85
2023/02/12 18:31:18;;;;;;;6.07;3.40;;;;;;;;;;10259882;28;20061;-87
2023/02/12 18:36:23;;;;;;;5.18;3.38;;;;;;;;;;10261750;28;20039;-85
2023/02/12 18:41:30;;;;;;;5.13;3.33;;;;;;;;;;10256147;28;20113;-82
2023/02/12 18:46:33;;;;;;;4.95;3.17;;;;;;;;;;10257643;28;20042;-84
2023/02/12 18:51:39;;;;;;;5.57;3.78;;;;;;;;;;10254223;28;20101;-85
2023/02/12 18:56:47;;;;;;;5.90;3.85;;;;;;;;;;10258924;28;20043;-84
2023/02/12 19:01:50;;;;;;;5.85;3.80;;;;;;;;;;10254748;28;20058;-83
2023/02/12 19:06:56;;;;;;;6.97;4.28;;;;;;;;;;10256017;28;20051;-84
2023/02/12 19:11:59;;;;;;;5.70;4.13;;;;;;;;;;10248342;28;20106;-82
2023/02/12 19:17:03;;;;;;;6.75;4.50;;;;;;;;;;10261722;28;20043;-85
2023/02/12 19:22:08;;;;;;;6.60;4.28;;;;;;;;;;10250331;28;20054;-83
2023/02/12 19:27:14;;;;;;;5.22;3.55;;;;;;;;;;10274295;28;20055;-84
2023/02/12 19:32:17;;;;;;;7.10;4.65;;;;;;;;;;10258659;28;20047;-86
2023/02/12 19:37:23;;;;;;;5.57;3.70;;;;;;;;;;10259489;28;20067;-86
2023/02/12 19:42:26;;;;;;;6.17;3.83;;;;;;;;;;10256977;28;20130;-83
2023/02/12 19:47:37;;;;;;;5.28;4.00;;;;;;;;;;10261634;28;20070;-85
2023/02/12 19:52:49;;;;;;;6.50;4.00;;;;;;;;;;10258509;28;20628;-85
2023/02/12 19:57:53;;;;;;;6.30;3.92;;;;;;;;;;10254257;23;20082;-82
2023/02/12 20:02:57;;;;;;;6.28;4.35;;;;;;;;;;10224234;29;20059;-83
2023/02/12 20:08:01;;;;;;;8.07;5.13;;;;;;;;;;10217247;29;20094;-82
2023/02/12 20:13:05;;;;;;;10.90;6.47;;;;;;;;;;10223339;29;20051;-83
2023/02/12 20:18:08;;;;;;;11.02;6.47;;;;;;;;;;10228630;28;20436;-83
2023/02/12 20:23:13;;;;;;;12.32;6.57;;;;;;;;;;10220692;29;20059;-83
2023/02/12 20:28:16;;;;;;;7.97;5.10;;;;;;;;;;10220963;28;20047;-83
2023/02/12 20:33:20;;;;;;;7.10;4.55;;;;;;;;;;10245279;28;20048;-82
2023/02/12 20:38:24;;;;;;;6.78;4.97;;;;;;;;;;10234475;28;20046;-83
2023/02/12 20:43:29;;;;;;;9.25;5.63;;;;;;;;;;10222628;29;20044;-83
2023/02/12 20:48:32;;;;;;;11.57;6.93;;;;;;;;;;10216614;28;20052;-83
2023/02/12 20:53:37;;;;;;;14.88;8.98;;;;;;;;;;10202401;29;20590;-83
2023/02/12 20:58:44;;;;;;;15.52;8.18;;;;;;;;;;10221449;28;20146;-83
2023/02/12 21:03:52;;;;;;;20.05;10.35;;;;;;;;;;10221925;28;20051;-83
2023/02/12 21:08:56;;;;;;;17.02;10.23;;;;;;;;;;10226447;28;20528;-83
2023/02/12 21:14:02;;;;;;;17.92;9.77;;;;;;;;;;10230985;29;20145;-81
2023/02/12 21:19:24;;;;;;;18.35;10.52;;;;;;;;;;10209554;29;20110;-80
2023/02/12 21:24:30;;;;;;;19.60;10.45;;;;;;;;;;10215344;29;20043;-81
2023/02/12 21:29:34;;;;;;;20.95;11.48;;;;;;;;;;10215323;29;20055;-81
2023/02/12 21:34:37;;;;;;;21.83;11.35;;;;;;;;;;10224997;28;20058;-81
2023/02/12 21:39:42;;;;;;;20.98;10.82;;;;;;;;;;10212440;28;20124;-79
2023/02/12 21:44:46;;;;;;;17.92;9.82;;;;;;;;;;10227310;28;20114;-81
2023/02/12 21:49:49;;;;;;;14.30;8.05;;;;;;;;;;10208838;28;20055;-81
2023/02/12 21:54:56;;;;;;;15.65;7.85;;;;;;;;;;10209965;28;20063;-81
2023/02/12 21:59:59;;;;;;;13.15;6.80;;;;;;;;;;10214789;28;20057;-82
2023/02/12 22:05:02;;;;;;;10.77;6.28;;;;;;;;;;10221824;28;20089;-82
2023/02/12 22:10:09;;;;;;;11.82;6.60;;;;;;;;;;10217890;28;20055;-82
2023/02/12 22:15:12;;;;;;;9.95;6.25;;;;;;;;;;10221338;28;20047;-82
2023/02/12 22:20:16;;;;;;;9.30;5.75;;;;;;;;;;10208182;28;20051;-82
2023/02/12 22:25:21;;;;;;;10.68;6.05;;;;;;;;;;10222318;28;20047;-82
2023/02/12 22:30:24;;;;;;;7.93;5.05;;;;;;;;;;10228620;28;20045;-82
2023/02/12 22:35:28;;;;;;;7.70;5.18;;;;;;;;;;10212857;29;20047;-82
2023/02/12 22:40:32;;;;;;;9.23;5.53;;;;;;;;;;10224840;28;20054;-82
2023/02/12 22:45:36;;;;;;;6.95;4.53;;;;;;;;;;10205769;28;20062;-82
2023/02/12 22:50:39;;;;;;;7.60;4.85;;;;;;;;;;10217276;28;20099;-82
2023/02/12 22:55:44;;;;;;;6.93;4.93;;;;;;;;;;10230039;28;20050;-81
2023/02/12 23:00:47;;;;;;;7.05;5.05;;;;;;;;;;10216961;28;20039;-80
2023/02/12 23:05:50;;;;;;;6.85;4.93;;;;;;;;;;10209761;28;20131;-82
2023/02/12 23:10:55;;;;;;;5.75;4.03;;;;;;;;;;10213265;28;20043;-82
2023/02/12 23:15:59;;;;;;;6.72;4.38;;;;;;;;;;10225321;28;20066;-81
2023/02/12 23:21:02;;;;;;;5.70;4.03;;;;;;;;;;10212049;28;20051;-81
2023/02/12 23:26:07;;;;;;;7.18;4.75;;;;;;;;;;10211410;28;20072;-81
2023/02/12 23:31:10;;;;;;;6.22;4.63;;;;;;;;;;10214129;28;20047;-81
2023/02/12 23:36:14;;;;;;;6.25;4.13;;;;;;;;;;10198946;29;20059;-82
2023/02/12 23:41:18;;;;;;;6.80;4.63;;;;;;;;;;10226025;28;20043;-81
2023/02/12 23:46:22;;;;;;;7.22;4.97;;;;;;;;;;10202010;28;20047;-81
2023/02/12 23:51:25;;;;;;;6.00;4.50;;;;;;;;;;10204508;28;20043;-82
2023/02/12 23:56:30;;;;;;;7.78;5.00;;;;;;;;;;10217224;28;20058;-81
